createdAt,value
2023-03-14T00:00:05.543Z,92.23
2023-03-14T00:00:17.405Z,92.23
2023-03-14T00:00:28.168Z,92.13
2023-03-14T00:00:40.403Z,92.23
2023-03-14T00:00:53.168Z,92.13
2023-03-14T00:01:03.936Z,92.13
2023-03-14T00:01:15.653Z,92.13
2023-03-14T00:01:26.403Z,92.13
2023-03-14T00:01:38.156Z,92.23
2023-03-14T00:01:49.923Z,92.13
2023-03-14T00:02:01.639Z,92.13
2023-03-14T00:02:13.926Z,92.03
2023-03-14T00:02:25.751Z,92.03
2023-03-14T00:02:36.560Z,91.93
2023-03-14T00:02:50.322Z,91.93
2023-03-14T00:03:02.046Z,92.03
2023-03-14T00:03:14.541Z,92.03
2023-03-14T00:03:26.273Z,92.03
2023-03-14T00:03:37.101Z,91.93
2023-03-14T00:03:47.902Z,91.93
2023-03-14T00:03:58.682Z,91.93
2023-03-14T00:04:09.456Z,91.78
2023-03-14T00:04:20.227Z,91.82
2023-03-14T00:04:31.051Z,91.72
2023-03-14T00:04:43.538Z,91.72
2023-03-14T00:04:55.775Z,91.67
2023-03-14T00:05:07.557Z,91.61
2023-03-14T00:05:19.745Z,91.61
2023-03-14T00:05:31.709Z,91.61
2023-03-14T00:05:42.455Z,91.61
2023-03-14T00:05:56.182Z,91.61
2023-03-14T00:06:08.616Z,91.61
2023-03-14T00:06:21.133Z,91.72
2023-03-14T00:06:33.079Z,91.72
2023-03-14T00:06:43.846Z,91.72
2023-03-14T00:06:54.676Z,91.72
2023-03-14T00:07:05.446Z,91.67
2023-03-14T00:07:17.237Z,91.72
2023-03-14T00:07:28.040Z,91.61
2023-03-14T00:07:39.071Z,91.61
2023-03-14T00:07:49.844Z,91.61
2023-03-14T00:08:01.567Z,91.61
2023-03-14T00:08:13.292Z,91.51
2023-03-14T00:08:25.497Z,91.51
2023-03-14T00:08:36.267Z,91.51
2023-03-14T00:08:47.079Z,91.41
2023-03-14T00:08:57.887Z,91.51
2023-03-14T00:09:08.659Z,91.51
2023-03-14T00:09:19.561Z,91.51
2023-03-14T00:09:30.348Z,91.51
2023-03-14T00:09:42.069Z,91.51
2023-03-14T00:09:55.044Z,91.51
2023-03-14T00:10:05.852Z,91.51
2023-03-14T00:10:16.691Z,91.61
2023-03-14T00:10:27.488Z,91.61
2023-03-14T00:10:38.254Z,91.61
2023-03-14T00:10:49.081Z,91.72
2023-03-14T00:10:59.852Z,91.72
2023-03-14T00:11:12.299Z,91.72
2023-03-14T00:11:24.528Z,91.82
2023-03-14T00:11:37.038Z,91.82
2023-03-14T00:11:47.837Z,91.82
2023-03-14T00:11:58.629Z,91.93
2023-03-14T00:12:09.387Z,91.93
2023-03-14T00:12:21.119Z,91.93
2023-03-14T00:12:33.869Z,92.03
2023-03-14T00:12:46.320Z,92.13
2023-03-14T00:12:57.109Z,92.13
2023-03-14T00:13:10.129Z,92.13
2023-03-14T00:13:21.839Z,92.13
2023-03-14T00:13:32.611Z,92.13
2023-03-14T00:13:43.400Z,92.13
2023-03-14T00:13:54.175Z,92.13
2023-03-14T00:14:06.403Z,92.13
2023-03-14T00:14:18.639Z,92.13
2023-03-14T00:14:29.419Z,92.13
2023-03-14T00:14:43.118Z,92.13
2023-03-14T00:14:55.859Z,92.03
2023-03-14T00:15:08.104Z,92.03
2023-03-14T00:15:18.897Z,92.03
2023-03-14T00:15:29.709Z,92.03
2023-03-14T00:15:41.492Z,92.03
2023-03-14T00:15:53.271Z,92.03
2023-03-14T00:16:04.135Z,92.03
2023-03-14T00:16:15.055Z,92.03
2023-03-14T00:16:26.837Z,91.93
2023-03-14T00:16:37.596Z,91.82
2023-03-14T00:16:48.407Z,91.82
2023-03-14T00:16:59.195Z,91.72
2023-03-14T00:17:09.961Z,91.72
2023-03-14T00:17:22.470Z,91.61
2023-03-14T00:17:33.252Z,91.61
2023-03-14T00:17:44.997Z,91.61
2023-03-14T00:17:55.902Z,91.61
2023-03-14T00:18:08.393Z,91.72
2023-03-14T00:18:19.182Z,91.72
2023-03-14T00:18:29.959Z,91.61
2023-03-14T00:18:40.731Z,91.61
2023-03-14T00:18:52.418Z,91.61
2023-03-14T00:19:03.158Z,91.61
2023-03-14T00:19:13.960Z,91.61
2023-03-14T00:19:24.780Z,91.61
2023-03-14T00:19:35.619Z,91.51
2023-03-14T00:19:46.391Z,91.41
2023-03-14T00:19:58.131Z,91.31
2023-03-14T00:20:09.850Z,91.31
2023-03-14T00:20:21.591Z,91.31
2023-03-14T00:20:34.811Z,91.20
2023-03-14T00:20:45.586Z,91.20
2023-03-14T00:20:56.401Z,91.10
2023-03-14T00:21:08.150Z,91.20
2023-03-14T00:21:18.948Z,91.20
2023-03-14T00:21:31.408Z,91.20
2023-03-14T00:21:42.154Z,91.20
2023-03-14T00:21:53.931Z,91.20
2023-03-14T00:22:05.671Z,91.20
2023-03-14T00:22:16.503Z,91.10
2023-03-14T00:22:27.279Z,91.10
2023-03-14T00:22:38.030Z,91.10
2023-03-14T00:22:48.830Z,91.10
2023-03-14T00:22:59.647Z,91.10
2023-03-14T00:23:11.389Z,91.00
2023-03-14T00:23:22.172Z,91.00
2023-03-14T00:23:33.941Z,90.85
2023-03-14T00:23:46.414Z,90.85
2023-03-14T00:23:57.206Z,90.75
2023-03-14T00:24:07.982Z,90.65
2023-03-14T00:24:20.229Z,90.44
2023-03-14T00:24:30.998Z,90.34
2023-03-14T00:24:42.743Z,90.34
2023-03-14T00:24:54.512Z,90.14
2023-03-14T00:25:05.263Z,90.14
2023-03-14T00:25:17.497Z,90.03
2023-03-14T00:25:28.271Z,89.93
2023-03-14T00:25:39.989Z,89.83
2023-03-14T00:25:50.806Z,89.83
2023-03-14T00:26:01.554Z,89.72
2023-03-14T00:26:12.343Z,89.72
2023-03-14T00:26:24.632Z,89.78
2023-03-14T00:26:38.391Z,89.83
2023-03-14T00:26:50.155Z,89.83
2023-03-14T00:27:00.955Z,89.69
2023-03-14T00:27:11.776Z,89.69
2023-03-14T00:27:22.565Z,89.58
2023-03-14T00:27:33.332Z,89.58
2023-03-14T00:27:44.132Z,89.58
2023-03-14T00:27:54.970Z,89.69
2023-03-14T00:28:06.806Z,89.58
2023-03-14T00:28:17.542Z,89.62
2023-03-14T00:28:28.453Z,89.48
2023-03-14T00:28:39.295Z,89.48
2023-03-14T00:28:51.043Z,89.37
2023-03-14T00:29:03.530Z,89.27
2023-03-14T00:29:14.273Z,89.07
2023-03-14T00:29:25.061Z,88.96
2023-03-14T00:29:35.810Z,88.86
2023-03-14T00:29:46.665Z,88.86
2023-03-14T00:29:58.901Z,88.86
2023-03-14T00:30:09.686Z,88.86
2023-03-14T00:30:23.383Z,88.76
2023-03-14T00:30:36.713Z,88.56
2023-03-14T00:30:48.445Z,88.56
2023-03-14T00:31:01.272Z,88.45
2023-03-14T00:31:13.577Z,88.56
2023-03-14T00:31:25.360Z,88.56
2023-03-14T00:31:37.216Z,88.56
2023-03-14T00:31:48.992Z,88.56
2023-03-14T00:31:59.827Z,88.45
2023-03-14T00:32:10.588Z,88.56
2023-03-14T00:32:21.414Z,88.56
2023-03-14T00:32:33.209Z,88.76
2023-03-14T00:32:44.010Z,88.76
2023-03-14T00:32:55.889Z,88.66
2023-03-14T00:33:08.111Z,88.45
2023-03-14T00:33:18.883Z,88.45
2023-03-14T00:33:29.683Z,88.35
2023-03-14T00:33:40.476Z,88.35
2023-03-14T00:33:51.302Z,88.35
2023-03-14T00:34:02.092Z,88.35
2023-03-14T00:34:14.563Z,88.24
2023-03-14T00:34:27.028Z,88.14
2023-03-14T00:34:37.815Z,88.04
2023-03-14T00:34:49.593Z,88.14
2023-03-14T00:35:01.312Z,88.14
2023-03-14T00:35:12.054Z,88.14
2023-03-14T00:35:23.805Z,88.14
2023-03-14T00:35:34.604Z,88.14
2023-03-14T00:35:47.633Z,88.14
2023-03-14T00:35:59.462Z,88.24
2023-03-14T00:36:11.302Z,88.14
2023-03-14T00:36:22.082Z,88.24
2023-03-14T00:36:34.603Z,88.24
2023-03-14T00:36:46.319Z,88.24
2023-03-14T00:36:59.051Z,88.14
2023-03-14T00:37:09.846Z,88.04
2023-03-14T00:37:22.314Z,88.04
2023-03-14T00:37:34.041Z,88.04
2023-03-14T00:37:45.774Z,88.14
2023-03-14T00:37:58.254Z,88.04
2023-03-14T00:38:10.725Z,87.94
2023-03-14T00:38:21.515Z,87.94
2023-03-14T00:38:32.314Z,87.94
2023-03-14T00:38:45.444Z,87.94
2023-03-14T00:38:57.866Z,87.94
2023-03-14T00:39:09.757Z,88.14
2023-03-14T00:39:20.625Z,88.14
2023-03-14T00:39:32.362Z,88.14
2023-03-14T00:39:43.127Z,88.04
2023-03-14T00:39:54.844Z,88.14
2023-03-14T00:40:07.520Z,88.24
2023-03-14T00:40:19.967Z,88.14
2023-03-14T00:40:30.754Z,88.04
2023-03-14T00:40:41.524Z,88.04
2023-03-14T00:40:53.236Z,88.04
2023-03-14T00:41:04.109Z,88.04
2023-03-14T00:41:16.557Z,87.94
2023-03-14T00:41:28.321Z,87.94
2023-03-14T00:41:39.096Z,88.04
2023-03-14T00:41:52.556Z,88.04
2023-03-14T00:42:03.325Z,88.04
2023-03-14T00:42:15.079Z,88.14
2023-03-14T00:42:25.885Z,88.14
2023-03-14T00:42:36.725Z,88.14
2023-03-14T00:42:48.453Z,88.14
2023-03-14T00:43:00.874Z,88.14
2023-03-14T00:43:13.356Z,88.24
2023-03-14T00:43:26.993Z,88.24
2023-03-14T00:43:38.700Z,88.29
2023-03-14T00:43:49.478Z,88.29
2023-03-14T00:44:01.694Z,88.35
2023-03-14T00:44:12.455Z,88.45
2023-03-14T00:44:24.675Z,88.39
2023-03-14T00:44:35.499Z,88.29
2023-03-14T00:44:47.247Z,88.18
2023-03-14T00:44:57.988Z,88.08
2023-03-14T00:45:09.746Z,87.98
2023-03-14T00:45:20.495Z,87.88
2023-03-14T00:45:31.293Z,87.88
2023-03-14T00:45:43.791Z,87.84
2023-03-14T00:45:54.556Z,87.77
2023-03-14T00:46:05.327Z,87.88
2023-03-14T00:46:17.837Z,87.73
2023-03-14T00:46:28.689Z,87.77
2023-03-14T00:46:40.720Z,87.63
2023-03-14T00:46:53.162Z,87.63
2023-03-14T00:47:04.007Z,87.53
2023-03-14T00:47:17.007Z,87.43
2023-03-14T00:47:29.515Z,87.32
2023-03-14T00:47:41.955Z,87.32
2023-03-14T00:47:54.415Z,87.22
2023-03-14T00:48:06.856Z,87.22
2023-03-14T00:48:17.637Z,87.22
2023-03-14T00:48:29.356Z,87.12
2023-03-14T00:48:40.148Z,87.12
2023-03-14T00:48:50.907Z,87.02
2023-03-14T00:49:01.699Z,86.91
2023-03-14T00:49:13.895Z,86.91
2023-03-14T00:49:26.659Z,86.91
2023-03-14T00:49:39.149Z,86.91
2023-03-14T00:49:49.956Z,86.91
2023-03-14T00:50:00.789Z,86.81
2023-03-14T00:50:12.519Z,86.81
2023-03-14T00:50:23.268Z,86.81
2023-03-14T00:50:34.047Z,86.81
2023-03-14T00:50:44.797Z,86.71
2023-03-14T00:50:55.644Z,86.71
2023-03-14T00:51:06.376Z,86.60
2023-03-14T00:51:18.632Z,86.50
2023-03-14T00:51:29.446Z,86.40
2023-03-14T00:51:40.488Z,86.30
2023-03-14T00:51:51.280Z,86.30
2023-03-14T00:52:02.053Z,86.30
2023-03-14T00:52:14.095Z,86.19
2023-03-14T00:52:24.867Z,86.05
2023-03-14T00:52:35.647Z,85.95
2023-03-14T00:52:47.380Z,85.95
2023-03-14T00:52:58.151Z,85.95
2023-03-14T00:53:11.114Z,85.85
2023-03-14T00:53:22.168Z,85.85
2023-03-14T00:53:33.921Z,85.85
2023-03-14T00:53:46.251Z,85.74
2023-03-14T00:53:59.048Z,85.64
2023-03-14T00:54:09.788Z,85.64
2023-03-14T00:54:20.549Z,85.54
2023-03-14T00:54:32.259Z,85.44
2023-03-14T00:54:45.233Z,85.44
2023-03-14T00:54:56.021Z,85.54
2023-03-14T00:55:06.803Z,85.54
2023-03-14T00:55:18.491Z,85.54
2023-03-14T00:55:30.262Z,85.54
2023-03-14T00:55:42.497Z,85.44
2023-03-14T00:55:54.987Z,85.44
2023-03-14T00:56:05.752Z,85.33
2023-03-14T00:56:17.498Z,85.33
2023-03-14T00:56:29.739Z,85.33
2023-03-14T00:56:41.461Z,85.13
2023-03-14T00:56:52.212Z,85.13
2023-03-14T00:57:02.988Z,85.13
2023-03-14T00:57:14.716Z,85.13
2023-03-14T00:57:25.562Z,85.13
2023-03-14T00:57:37.298Z,85.13
2023-03-14T00:57:49.768Z,85.23
2023-03-14T00:58:03.893Z,85.13
2023-03-14T00:58:14.689Z,85.13
2023-03-14T00:58:28.140Z,85.13
2023-03-14T00:58:38.925Z,85.03
2023-03-14T00:58:49.698Z,84.92
2023-03-14T00:59:00.520Z,84.92
2023-03-14T00:59:11.314Z,84.92
2023-03-14T00:59:22.070Z,84.92
2023-03-14T00:59:33.807Z,84.92
2023-03-14T00:59:46.793Z,84.82
2023-03-14T00:59:57.574Z,84.82
2023-03-14T01:00:09.314Z,84.82
2023-03-14T01:00:21.795Z,84.82
2023-03-14T01:00:33.573Z,84.82
2023-03-14T01:00:46.290Z,84.72
2023-03-14T01:00:57.092Z,84.72
2023-03-14T01:01:07.960Z,84.72
2023-03-14T01:01:19.748Z,84.61
2023-03-14T01:01:31.537Z,84.61
2023-03-14T01:01:42.370Z,84.61
2023-03-14T01:01:54.871Z,84.72
2023-03-14T01:02:06.710Z,84.61
2023-03-14T01:02:17.512Z,84.61
2023-03-14T01:02:28.328Z,84.61
2023-03-14T01:02:40.055Z,84.61
2023-03-14T01:02:52.360Z,84.82
2023-03-14T01:03:03.154Z,84.82
2023-03-14T01:03:13.947Z,84.82
2023-03-14T01:03:24.721Z,84.82
2023-03-14T01:03:36.455Z,84.82
2023-03-14T01:03:47.444Z,84.82
2023-03-14T01:03:59.203Z,84.82
2023-03-14T01:04:10.061Z,84.61
2023-03-14T01:04:20.892Z,84.61
2023-03-14T01:04:32.660Z,84.61
2023-03-14T01:04:43.492Z,84.61
2023-03-14T01:04:54.322Z,84.61
2023-03-14T01:05:05.174Z,84.72
2023-03-14T01:05:16.046Z,84.61
2023-03-14T01:05:26.855Z,84.61
2023-03-14T01:05:39.341Z,84.61
2023-03-14T01:05:51.847Z,84.41
2023-03-14T01:06:03.632Z,84.31
2023-03-14T01:06:15.919Z,84.20
2023-03-14T01:06:26.755Z,84.20
2023-03-14T01:06:37.592Z,84.20
2023-03-14T01:06:49.814Z,84.20
2023-03-14T01:07:00.652Z,84.10
2023-03-14T01:07:11.434Z,84.10
2023-03-14T01:07:23.944Z,84.20
2023-03-14T01:07:34.721Z,84.20
2023-03-14T01:07:45.515Z,84.10
2023-03-14T01:07:56.336Z,84.00
2023-03-14T01:08:07.179Z,84.00
2023-03-14T01:08:18.914Z,83.90
2023-03-14T01:08:30.646Z,83.90
2023-03-14T01:08:43.127Z,83.90
2023-03-14T01:08:55.606Z,83.90
2023-03-14T01:09:07.395Z,84.00
2023-03-14T01:09:18.155Z,83.90
2023-03-14T01:09:30.652Z,83.80
2023-03-14T01:09:41.468Z,83.80
2023-03-14T01:09:52.227Z,83.80
2023-03-14T01:10:03.073Z,83.80
2023-03-14T01:10:14.096Z,83.80
2023-03-14T01:10:24.910Z,83.80
2023-03-14T01:10:35.657Z,83.80
2023-03-14T01:10:48.143Z,83.80
2023-03-14T01:10:59.691Z,83.80
2023-03-14T01:11:10.536Z,83.80
2023-03-14T01:11:21.397Z,83.80
2023-03-14T01:11:32.178Z,83.80
2023-03-14T01:11:43.077Z,83.90
2023-03-14T01:11:53.882Z,83.90
2023-03-14T01:12:04.647Z,84.00
2023-03-14T01:12:15.533Z,84.00
2023-03-14T01:12:26.327Z,84.00
2023-03-14T01:12:37.097Z,84.00
2023-03-14T01:12:47.880Z,83.90
2023-03-14T01:12:59.637Z,83.90
2023-03-14T01:13:10.467Z,83.90
2023-03-14T01:13:22.200Z,83.90
2023-03-14T01:13:32.957Z,83.90
2023-03-14T01:13:43.788Z,83.90
2023-03-14T01:13:54.577Z,83.80
2023-03-14T01:14:06.306Z,83.80
2023-03-14T01:14:18.552Z,83.80
2023-03-14T01:14:29.389Z,83.69
2023-03-14T01:14:40.178Z,83.69
2023-03-14T01:14:50.959Z,83.69
2023-03-14T01:15:01.754Z,83.59
2023-03-14T01:15:12.621Z,83.49
2023-03-14T01:15:23.433Z,83.49
2023-03-14T01:15:34.288Z,83.49
2023-03-14T01:15:45.113Z,83.49
2023-03-14T01:15:56.863Z,83.49
2023-03-14T01:16:08.674Z,83.59
2023-03-14T01:16:20.603Z,83.49
2023-03-14T01:16:32.548Z,83.49
2023-03-14T01:16:45.068Z,83.39
2023-03-14T01:16:56.801Z,83.39
2023-03-14T01:17:07.600Z,83.39
2023-03-14T01:17:20.145Z,83.49
2023-03-14T01:17:32.711Z,83.49
2023-03-14T01:17:45.163Z,83.49
2023-03-14T01:17:55.965Z,83.49
2023-03-14T01:18:06.793Z,83.49
2023-03-14T01:18:17.513Z,83.49
2023-03-14T01:18:28.309Z,83.49
2023-03-14T01:18:40.308Z,83.59
2023-03-14T01:18:51.093Z,83.59
2023-03-14T01:19:01.920Z,83.69
2023-03-14T01:19:14.378Z,83.69
2023-03-14T01:19:25.138Z,83.80
2023-03-14T01:19:35.943Z,83.80
2023-03-14T01:19:47.685Z,83.90
2023-03-14T01:19:59.433Z,83.90
2023-03-14T01:20:10.271Z,84.00
2023-03-14T01:20:21.036Z,83.90
2023-03-14T01:20:32.749Z,83.80
2023-03-14T01:20:43.521Z,83.69
2023-03-14T01:20:54.311Z,83.59
2023-03-14T01:21:05.089Z,83.59
2023-03-14T01:21:15.890Z,83.59
2023-03-14T01:21:27.666Z,83.59
2023-03-14T01:21:38.428Z,83.59
2023-03-14T01:21:50.193Z,83.49
2023-03-14T01:22:02.665Z,83.49
2023-03-14T01:22:14.459Z,83.49
2023-03-14T01:22:25.244Z,83.59
2023-03-14T01:22:37.711Z,83.59
2023-03-14T01:22:49.480Z,83.49
2023-03-14T01:23:01.456Z,83.39
2023-03-14T01:23:12.223Z,83.39
2023-03-14T01:23:23.008Z,83.39
2023-03-14T01:23:33.796Z,83.39
2023-03-14T01:23:44.575Z,83.28
2023-03-14T01:23:55.359Z,83.28
2023-03-14T01:24:06.095Z,83.28
2023-03-14T01:24:16.950Z,83.28
2023-03-14T01:24:27.697Z,83.28
2023-03-14T01:24:38.495Z,83.28
2023-03-14T01:24:51.695Z,83.18
2023-03-14T01:25:03.428Z,83.18
2023-03-14T01:25:17.574Z,83.07
2023-03-14T01:25:28.352Z,82.97
2023-03-14T01:25:39.094Z,83.07
2023-03-14T01:25:51.562Z,83.07
2023-03-14T01:26:04.050Z,83.07
2023-03-14T01:26:16.982Z,82.97
2023-03-14T01:26:29.486Z,82.87
2023-03-14T01:26:42.234Z,82.87
2023-03-14T01:26:53.019Z,82.87
2023-03-14T01:27:05.473Z,82.87
2023-03-14T01:27:17.214Z,82.87
2023-03-14T01:27:30.467Z,82.87
2023-03-14T01:27:42.716Z,82.77
2023-03-14T01:27:55.442Z,82.77
2023-03-14T01:28:06.239Z,82.87
2023-03-14T01:28:18.734Z,82.87
2023-03-14T01:28:31.456Z,82.77
2023-03-14T01:28:42.258Z,82.77
2023-03-14T01:28:55.482Z,82.67
2023-03-14T01:29:08.616Z,82.67
2023-03-14T01:29:21.873Z,82.67
2023-03-14T01:29:34.344Z,82.67
2023-03-14T01:29:45.148Z,82.56
2023-03-14T01:29:56.925Z,82.56
2023-03-14T01:30:09.397Z,82.56
2023-03-14T01:30:20.163Z,82.56
2023-03-14T01:30:31.912Z,82.56
2023-03-14T01:30:42.688Z,82.46
2023-03-14T01:30:53.465Z,82.46
2023-03-14T01:31:05.976Z,82.46
2023-03-14T01:31:17.765Z,82.56
2023-03-14T01:31:28.627Z,82.46
2023-03-14T01:31:39.420Z,82.46
2023-03-14T01:31:50.235Z,82.46
2023-03-14T01:32:02.045Z,82.46
2023-03-14T01:32:12.871Z,82.46
2023-03-14T01:32:23.686Z,82.36
2023-03-14T01:32:34.494Z,82.36
2023-03-14T01:32:45.290Z,82.36
2023-03-14T01:32:56.151Z,82.36
2023-03-14T01:33:07.951Z,82.26
2023-03-14T01:33:18.749Z,82.26
2023-03-14T01:33:30.486Z,82.26
2023-03-14T01:33:41.278Z,82.26
2023-03-14T01:33:52.072Z,82.26
2023-03-14T01:34:02.906Z,82.26
2023-03-14T01:34:14.680Z,82.26
2023-03-14T01:34:26.404Z,82.26
2023-03-14T01:34:37.176Z,82.15
2023-03-14T01:34:48.014Z,82.15
2023-03-14T01:34:58.757Z,82.15
2023-03-14T01:35:09.529Z,82.26
2023-03-14T01:35:20.290Z,82.26
2023-03-14T01:35:32.841Z,82.15
2023-03-14T01:35:43.662Z,82.15
2023-03-14T01:35:55.499Z,82.15
2023-03-14T01:36:06.322Z,82.05
2023-03-14T01:36:17.167Z,82.05
2023-03-14T01:36:31.774Z,82.05
2023-03-14T01:36:44.270Z,82.05
2023-03-14T01:36:55.049Z,82.05
2023-03-14T01:37:06.815Z,81.95
2023-03-14T01:37:18.617Z,81.95
2023-03-14T01:37:29.396Z,81.95
2023-03-14T01:37:41.194Z,81.85
2023-03-14T01:37:54.895Z,81.85
2023-03-14T01:38:07.588Z,81.85
2023-03-14T01:38:18.372Z,81.85
2023-03-14T01:38:30.098Z,81.74
2023-03-14T01:38:40.961Z,81.74
2023-03-14T01:38:54.177Z,81.74
2023-03-14T01:39:04.964Z,81.74
2023-03-14T01:39:15.758Z,81.74
2023-03-14T01:39:26.587Z,81.74
2023-03-14T01:39:38.858Z,81.74
2023-03-14T01:39:49.702Z,81.74
2023-03-14T01:40:01.471Z,81.74
2023-03-14T01:40:12.251Z,81.74
2023-03-14T01:40:23.273Z,81.54
2023-03-14T01:40:34.024Z,81.54
2023-03-14T01:40:44.799Z,81.54
2023-03-14T01:40:56.538Z,81.64
2023-03-14T01:41:07.342Z,81.54
2023-03-14T01:41:18.160Z,81.43
2023-03-14T01:41:28.960Z,81.43
2023-03-14T01:41:39.701Z,81.43
2023-03-14T01:41:51.514Z,81.43
2023-03-14T01:42:03.770Z,81.43
2023-03-14T01:42:14.580Z,81.54
2023-03-14T01:42:26.819Z,81.43
2023-03-14T01:42:37.670Z,81.34
2023-03-14T01:42:49.432Z,81.34
2023-03-14T01:43:00.444Z,81.34
2023-03-14T01:43:11.191Z,81.34
2023-03-14T01:43:22.901Z,81.23
2023-03-14T01:43:33.660Z,81.34
2023-03-14T01:43:45.452Z,81.34
2023-03-14T01:43:58.573Z,81.23
2023-03-14T01:44:10.330Z,81.13
2023-03-14T01:44:21.162Z,81.13
2023-03-14T01:44:31.967Z,81.13
2023-03-14T01:44:44.428Z,81.02
2023-03-14T01:44:56.872Z,81.02
2023-03-14T01:45:10.599Z,80.92
2023-03-14T01:45:23.100Z,81.02
2023-03-14T01:45:33.895Z,81.02
2023-03-14T01:45:45.718Z,81.13
2023-03-14T01:45:58.180Z,81.13
2023-03-14T01:46:10.820Z,81.02
2023-03-14T01:46:21.607Z,81.02
2023-03-14T01:46:34.088Z,81.02
2023-03-14T01:46:45.786Z,80.92
2023-03-14T01:46:58.248Z,80.82
2023-03-14T01:47:10.756Z,80.82
2023-03-14T01:47:21.493Z,80.82
2023-03-14T01:47:32.281Z,80.82
2023-03-14T01:47:44.566Z,80.82
2023-03-14T01:47:57.883Z,80.92
2023-03-14T01:48:09.883Z,81.02
2023-03-14T01:48:22.706Z,81.02
2023-03-14T01:48:34.460Z,81.02
2023-03-14T01:48:46.269Z,81.02
2023-03-14T01:48:58.771Z,81.02
2023-03-14T01:49:11.990Z,81.02
2023-03-14T01:49:23.766Z,81.02
2023-03-14T01:49:37.006Z,81.02
2023-03-14T01:49:49.484Z,80.92
2023-03-14T01:50:02.737Z,80.82
2023-03-14T01:50:13.551Z,80.72
2023-03-14T01:50:26.285Z,80.72
2023-03-14T01:50:37.053Z,80.72
2023-03-14T01:50:47.821Z,80.72
2023-03-14T01:50:59.573Z,80.72
2023-03-14T01:51:11.323Z,80.82
2023-03-14T01:51:22.112Z,80.78
2023-03-14T01:51:33.852Z,80.78
2023-03-14T01:51:45.834Z,80.78
2023-03-14T01:51:56.617Z,80.78
2023-03-14T01:52:08.373Z,80.78
2023-03-14T01:52:19.152Z,80.78
2023-03-14T01:52:29.929Z,80.68
2023-03-14T01:52:40.742Z,80.68
2023-03-14T01:52:54.503Z,80.58
2023-03-14T01:53:07.028Z,80.58
2023-03-14T01:53:19.757Z,80.58
2023-03-14T01:53:32.206Z,80.47
2023-03-14T01:53:42.974Z,80.47
2023-03-14T01:53:53.774Z,80.47
2023-03-14T01:54:05.466Z,80.37
2023-03-14T01:54:16.284Z,80.27
2023-03-14T01:54:28.781Z,80.07
2023-03-14T01:54:41.070Z,79.86
2023-03-14T01:54:53.544Z,79.96
2023-03-14T01:55:04.342Z,79.96
2023-03-14T01:55:16.551Z,79.96
2023-03-14T01:55:27.346Z,79.86
2023-03-14T01:55:38.121Z,79.75
2023-03-14T01:55:48.895Z,79.75
2023-03-14T01:56:01.361Z,79.75
2023-03-14T01:56:13.156Z,79.75
2023-03-14T01:56:24.933Z,79.75
2023-03-14T01:56:37.384Z,79.75
2023-03-14T01:56:48.245Z,79.75
2023-03-14T01:57:00.030Z,79.75
2023-03-14T01:57:12.465Z,79.66
2023-03-14T01:57:24.181Z,79.75
2023-03-14T01:57:35.035Z,79.75
2023-03-14T01:57:45.806Z,79.66
2023-03-14T01:57:58.064Z,79.66
2023-03-14T01:58:08.859Z,79.66
2023-03-14T01:58:19.625Z,79.66
2023-03-14T01:58:32.175Z,79.35
2023-03-14T01:58:44.685Z,79.45
2023-03-14T01:58:57.164Z,79.52
2023-03-14T01:59:07.992Z,79.41
2023-03-14T01:59:20.461Z,79.41
2023-03-14T01:59:31.251Z,79.52
2023-03-14T01:59:42.996Z,79.52
2023-03-14T01:59:54.748Z,79.31
2023-03-14T02:00:05.474Z,79.31
2023-03-14T02:00:16.300Z,79.21
2023-03-14T02:00:27.096Z,79.11
2023-03-14T02:00:37.937Z,79.11
2023-03-14T02:00:49.949Z,79.00
2023-03-14T02:01:01.793Z,79.00
2023-03-14T02:01:12.726Z,78.90
2023-03-14T02:01:23.523Z,78.90
2023-03-14T02:01:34.282Z,78.90
2023-03-14T02:01:45.138Z,78.90
2023-03-14T02:01:56.006Z,78.90
2023-03-14T02:02:06.756Z,78.90
2023-03-14T02:02:19.233Z,78.90
2023-03-14T02:02:30.020Z,78.80
2023-03-14T02:02:40.827Z,78.80
2023-03-14T02:02:51.670Z,78.70
2023-03-14T02:03:02.431Z,78.59
2023-03-14T02:03:14.932Z,78.59
2023-03-14T02:03:27.455Z,78.70
2023-03-14T02:03:39.265Z,78.90
2023-03-14T02:03:50.167Z,78.90
2023-03-14T02:04:00.974Z,78.90
2023-03-14T02:04:13.457Z,78.90
2023-03-14T02:04:24.260Z,78.80
2023-03-14T02:04:35.088Z,78.80
2023-03-14T02:04:46.947Z,78.70
2023-03-14T02:04:57.742Z,78.70
2023-03-14T02:05:08.524Z,78.80
2023-03-14T02:05:20.297Z,78.80
2023-03-14T02:05:32.048Z,78.59
2023-03-14T02:05:42.865Z,78.59
2023-03-14T02:05:55.339Z,78.59
2023-03-14T02:06:06.148Z,78.49
2023-03-14T02:06:18.658Z,78.49
2023-03-14T02:06:29.453Z,78.49
2023-03-14T02:06:41.661Z,78.49
2023-03-14T02:06:54.160Z,78.49
2023-03-14T02:07:04.931Z,78.28
2023-03-14T02:07:17.261Z,78.19
2023-03-14T02:07:28.036Z,78.19
2023-03-14T02:07:40.538Z,78.19
2023-03-14T02:07:52.297Z,78.08
2023-03-14T02:08:03.197Z,78.08
2023-03-14T02:08:15.721Z,78.08
2023-03-14T02:08:28.180Z,78.19
2023-03-14T02:08:41.467Z,78.08
2023-03-14T02:08:53.199Z,78.08
2023-03-14T02:09:05.449Z,78.19
2023-03-14T02:09:17.190Z,78.08
2023-03-14T02:09:28.682Z,77.98
2023-03-14T02:09:39.520Z,77.98
2023-03-14T02:09:50.298Z,77.98
2023-03-14T02:10:01.078Z,77.98
2023-03-14T02:10:11.869Z,77.98
2023-03-14T02:10:22.638Z,78.08
2023-03-14T02:10:35.124Z,78.08
2023-03-14T02:10:45.908Z,77.98
2023-03-14T02:10:58.885Z,78.08
2023-03-14T02:11:09.658Z,77.98
2023-03-14T02:11:20.427Z,77.87
2023-03-14T02:11:33.447Z,77.77
2023-03-14T02:11:45.237Z,77.87
2023-03-14T02:11:55.990Z,77.87
2023-03-14T02:12:06.758Z,77.73
2023-03-14T02:12:17.754Z,77.73
2023-03-14T02:12:30.216Z,77.84
2023-03-14T02:12:41.074Z,77.84
2023-03-14T02:12:51.906Z,77.94
2023-03-14T02:13:05.645Z,78.15
2023-03-14T02:13:16.387Z,78.25
2023-03-14T02:13:27.177Z,78.35
2023-03-14T02:13:41.419Z,78.45
2023-03-14T02:13:53.640Z,78.25
2023-03-14T02:14:06.086Z,78.45
2023-03-14T02:14:16.863Z,78.56
2023-03-14T02:14:29.390Z,78.45
2023-03-14T02:14:42.346Z,78.35
2023-03-14T02:14:54.068Z,78.35
2023-03-14T02:15:04.856Z,78.35
2023-03-14T02:15:17.288Z,78.45
2023-03-14T02:15:28.057Z,78.59
2023-03-14T02:15:38.866Z,78.70
2023-03-14T02:15:51.382Z,78.59
2023-03-14T02:16:02.214Z,78.59
2023-03-14T02:16:15.445Z,78.70
2023-03-14T02:16:27.770Z,78.70
2023-03-14T02:16:38.623Z,78.80
2023-03-14T02:16:50.313Z,78.70
2023-03-14T02:17:01.094Z,78.59
2023-03-14T02:17:11.876Z,78.59
2023-03-14T02:17:24.395Z,78.49
2023-03-14T02:17:35.146Z,78.39
2023-03-14T02:17:45.893Z,78.39
2023-03-14T02:17:57.728Z,78.28
2023-03-14T02:18:08.512Z,78.08
2023-03-14T02:18:20.245Z,77.98
2023-03-14T02:18:31.028Z,78.08
2023-03-14T02:18:42.796Z,78.19
2023-03-14T02:18:53.555Z,78.19
2023-03-14T02:19:04.385Z,78.28
2023-03-14T02:19:16.161Z,78.28
2023-03-14T02:19:29.827Z,78.39
2023-03-14T02:19:41.576Z,78.49
2023-03-14T02:19:52.391Z,78.49
2023-03-14T02:20:03.236Z,78.59
2023-03-14T02:20:15.729Z,78.59
2023-03-14T02:20:26.505Z,78.59
2023-03-14T02:20:37.252Z,78.49
2023-03-14T02:20:48.065Z,78.59
2023-03-14T02:20:58.954Z,78.49
2023-03-14T02:21:10.733Z,78.49
2023-03-14T02:21:23.250Z,78.39
2023-03-14T02:21:34.084Z,78.39
2023-03-14T02:21:44.865Z,78.39
2023-03-14T02:21:57.325Z,78.28
2023-03-14T02:22:08.175Z,78.28
2023-03-14T02:22:18.942Z,78.39
2023-03-14T02:22:30.686Z,78.28
2023-03-14T02:22:41.425Z,78.28
2023-03-14T02:22:52.194Z,78.28
2023-03-14T02:23:03.927Z,78.28
2023-03-14T02:23:14.739Z,78.19
2023-03-14T02:23:27.181Z,77.98
2023-03-14T02:23:37.933Z,77.98
2023-03-14T02:23:48.715Z,77.87
2023-03-14T02:24:01.706Z,77.87
2023-03-14T02:24:14.187Z,77.67
2023-03-14T02:24:24.993Z,77.67
2023-03-14T02:24:37.253Z,77.67
2023-03-14T02:24:49.005Z,77.67
2023-03-14T02:24:59.806Z,77.57
2023-03-14T02:25:10.596Z,77.57
2023-03-14T02:25:21.376Z,77.57
2023-03-14T02:25:33.834Z,77.67
2023-03-14T02:25:45.598Z,77.77
2023-03-14T02:25:58.564Z,77.77
2023-03-14T02:26:11.314Z,77.77
2023-03-14T02:26:23.825Z,77.77
2023-03-14T02:26:35.834Z,77.77
2023-03-14T02:26:49.054Z,77.77
2023-03-14T02:26:59.856Z,77.77
2023-03-14T02:27:10.643Z,77.77
2023-03-14T02:27:21.526Z,77.77
2023-03-14T02:27:32.276Z,77.87
2023-03-14T02:27:43.065Z,77.87
2023-03-14T02:27:54.045Z,77.77
2023-03-14T02:28:04.833Z,77.67
2023-03-14T02:28:15.616Z,77.57